sensor_id;sensor_type;location;lat;lon;timestamp;temperature;humidity
26051;DHT22;13825;53.496;10.020;2023-06-14T00:01:29;15.50;99.90
26051;DHT22;13825;53.496;10.020;2023-06-14T00:04:01;15.50;99.90
26051;DHT22;13825;53.496;10.020;2023-06-14T00:06:30;15.50;99.90
26051;DHT22;13825;53.496;10.020;2023-06-14T00:09:00;15.40;99.90
26051;DHT22;13825;53.496;10.020;2023-06-14T00:11:29;15.40;99.90
26051;DHT22;13825;53.496;10.020;2023-06-14T00:13:58;15.40;99.90
26051;DHT22;13825;53.496;10.020;2023-06-14T00:16:26;15.30;99.90
26051;DHT22;13825;53.496;10.020;2023-06-14T00:18:57;15.30;99.90
26051;DHT22;13825;53.496;10.020;2023-06-14T00:21:30;15.20;99.90
26051;DHT22;13825;53.496;10.020;2023-06-14T00:24:00;15.10;99.90
26051;DHT22;13825;53.496;10.020;2023-06-14T00:26:29;15.10;99.90
26051;DHT22;13825;53.496;10.020;2023-06-14T00:28:56;15.00;99.90
26051;DHT22;13825;53.496;10.020;2023-06-14T00:31:25;14.90;99.90
26051;DHT22;13825;53.496;10.020;2023-06-14T00:33:52;14.90;99.90
26051;DHT22;13825;53.496;10.020;2023-06-14T00:36:26;14.80;99.90
26051;DHT22;13825;53.496;10.020;2023-06-14T00:38:54;14.70;99.90
26051;DHT22;13825;53.496;10.020;2023-06-14T00:41:22;14.80;99.90
26051;DHT22;13825;53.496;10.020;2023-06-14T00:43:51;14.70;99.90
26051;DHT22;13825;53.496;10.020;2023-06-14T00:46:29;14.80;99.90
26051;DHT22;13825;53.496;10.020;2023-06-14T00:49:01;14.70;99.90
26051;DHT22;13825;53.496;10.020;2023-06-14T00:54:07;14.60;99.90
26051;DHT22;13825;53.496;10.020;2023-06-14T00:56:37;14.60;99.90
26051;DHT22;13825;53.496;10.020;2023-06-14T00:59:07;14.40;99.90
26051;DHT22;13825;53.496;10.020;2023-06-14T01:01:36;14.40;99.90
26051;DHT22;13825;53.496;10.020;2023-06-14T01:04:05;14.40;99.90
26051;DHT22;13825;53.496;10.020;2023-06-14T01:06:38;14.30;99.90
26051;DHT22;13825;53.496;10.020;2023-06-14T01:09:12;14.30;99.90
26051;DHT22;13825;53.496;10.020;2023-06-14T01:12:02;14.20;99.90
26051;DHT22;13825;53.496;10.020;2023-06-14T01:14:46;14.20;99.90
26051;DHT22;13825;53.496;10.020;2023-06-14T01:17:18;14.10;99.90
26051;DHT22;13825;53.496;10.020;2023-06-14T01:19:46;14.10;99.90
26051;DHT22;13825;53.496;10.020;2023-06-14T01:22:14;14.10;99.90
26051;DHT22;13825;53.496;10.020;2023-06-14T01:24:44;14.00;99.90
26051;DHT22;13825;53.496;10.020;2023-06-14T01:27:15;14.00;99.90
26051;DHT22;13825;53.496;10.020;2023-06-14T01:29:44;14.00;99.90
26051;DHT22;13825;53.496;10.020;2023-06-14T01:32:12;13.90;99.90
26051;DHT22;13825;53.496;10.020;2023-06-14T01:34:43;13.80;99.90
26051;DHT22;13825;53.496;10.020;2023-06-14T01:37:11;13.80;99.90
26051;DHT22;13825;53.496;10.020;2023-06-14T01:39:47;13.70;99.90
26051;DHT22;13825;53.496;10.020;2023-06-14T01:42:16;13.70;99.90
26051;DHT22;13825;53.496;10.020;2023-06-14T01:44:44;13.70;99.90
26051;DHT22;13825;53.496;10.020;2023-06-14T01:47:15;13.60;99.90
26051;DHT22;13825;53.496;10.020;2023-06-14T01:49:43;13.60;99.90
26051;DHT22;13825;53.496;10.020;2023-06-14T01:52:12;13.60;99.90
26051;DHT22;13825;53.496;10.020;2023-06-14T01:54:42;13.60;99.90
26051;DHT22;13825;53.496;10.020;2023-06-14T01:57:11;13.50;99.90
26051;DHT22;13825;53.496;10.020;2023-06-14T01:59:41;13.50;99.90
26051;DHT22;13825;53.496;10.020;2023-06-14T02:02:14;13.50;99.90
26051;DHT22;13825;53.496;10.020;2023-06-14T02:04:44;13.50;99.90
26051;DHT22;13825;53.496;10.020;2023-06-14T02:07:13;13.50;99.90
26051;DHT22;13825;53.496;10.020;2023-06-14T02:09:41;13.50;99.90
26051;DHT22;13825;53.496;10.020;2023-06-14T02:12:10;13.40;99.90
26051;DHT22;13825;53.496;10.020;2023-06-14T02:14:40;13.30;99.90
26051;DHT22;13825;53.496;10.020;2023-06-14T02:17:08;13.40;99.90
26051;DHT22;13825;53.496;10.020;2023-06-14T02:19:38;13.40;99.90
26051;DHT22;13825;53.496;10.020;2023-06-14T02:22:08;13.30;99.90
26051;DHT22;13825;53.496;10.020;2023-06-14T02:24:35;13.20;99.90
26051;DHT22;13825;53.496;10.020;2023-06-14T02:27:03;13.20;99.90
26051;DHT22;13825;53.496;10.020;2023-06-14T02:29:33;13.20;99.90
26051;DHT22;13825;53.496;10.020;2023-06-14T02:32:01;13.20;99.90
26051;DHT22;13825;53.496;10.020;2023-06-14T02:34:29;13.10;99.90
26051;DHT22;13825;53.496;10.020;2023-06-14T02:36:56;13.10;99.90
26051;DHT22;13825;53.496;10.020;2023-06-14T02:39:26;13.10;99.90
26051;DHT22;13825;53.496;10.020;2023-06-14T02:41:55;13.00;99.90
26051;DHT22;13825;53.496;10.020;2023-06-14T02:44:24;12.90;99.90
26051;DHT22;13825;53.496;10.020;2023-06-14T02:46:55;12.80;99.90
26051;DHT22;13825;53.496;10.020;2023-06-14T02:49:22;12.80;99.90
26051;DHT22;13825;53.496;10.020;2023-06-14T02:51:50;12.70;99.90
26051;DHT22;13825;53.496;10.020;2023-06-14T02:54:20;12.80;99.90
26051;DHT22;13825;53.496;10.020;2023-06-14T02:56:47;12.80;99.90
26051;DHT22;13825;53.496;10.020;2023-06-14T02:59:16;12.80;99.90
26051;DHT22;13825;53.496;10.020;2023-06-14T03:01:44;12.80;99.90
26051;DHT22;13825;53.496;10.020;2023-06-14T03:04:13;12.80;99.90
26051;DHT22;13825;53.496;10.020;2023-06-14T03:06:44;12.80;99.90
26051;DHT22;13825;53.496;10.020;2023-06-14T03:09:18;12.90;99.90
26051;DHT22;13825;53.496;10.020;2023-06-14T03:11:50;12.80;99.90
26051;DHT22;13825;53.496;10.020;2023-06-14T03:14:21;13.00;99.90
26051;DHT22;13825;53.496;10.020;2023-06-14T03:16:51;13.00;99.90
26051;DHT22;13825;53.496;10.020;2023-06-14T03:19:24;13.20;99.90
26051;DHT22;13825;53.496;10.020;2023-06-14T03:21:51;13.20;99.90
26051;DHT22;13825;53.496;10.020;2023-06-14T03:24:22;13.20;99.90
26051;DHT22;13825;53.496;10.020;2023-06-14T03:26:53;13.20;99.90
26051;DHT22;13825;53.496;10.020;2023-06-14T03:39:32;13.20;99.90
26051;DHT22;13825;53.496;10.020;2023-06-14T03:42:00;13.30;99.90
26051;DHT22;13825;53.496;10.020;2023-06-14T03:44:30;13.30;99.90
26051;DHT22;13825;53.496;10.020;2023-06-14T03:46:59;13.30;99.90
26051;DHT22;13825;53.496;10.020;2023-06-14T03:49:29;13.30;99.90
26051;DHT22;13825;53.496;10.020;2023-06-14T03:51:57;13.40;99.90
26051;DHT22;13825;53.496;10.020;2023-06-14T03:54:27;13.50;99.90
26051;DHT22;13825;53.496;10.020;2023-06-14T03:56:56;13.50;99.90
26051;DHT22;13825;53.496;10.020;2023-06-14T03:59:30;13.50;99.90
26051;DHT22;13825;53.496;10.020;2023-06-14T04:01:58;13.50;99.90
26051;DHT22;13825;53.496;10.020;2023-06-14T04:04:25;13.50;99.90
26051;DHT22;13825;53.496;10.020;2023-06-14T04:06:54;13.60;99.90
26051;DHT22;13825;53.496;10.020;2023-06-14T04:09:24;13.70;99.90
26051;DHT22;13825;53.496;10.020;2023-06-14T04:11:51;13.80;99.90
26051;DHT22;13825;53.496;10.020;2023-06-14T04:14:20;13.70;99.90
26051;DHT22;13825;53.496;10.020;2023-06-14T04:16:48;13.90;99.90
26051;DHT22;13825;53.496;10.020;2023-06-14T04:19:16;13.90;99.90
26051;DHT22;13825;53.496;10.020;2023-06-14T04:21:44;13.90;99.90
26051;DHT22;13825;53.496;10.020;2023-06-14T04:24:11;14.00;99.90
26051;DHT22;13825;53.496;10.020;2023-06-14T04:26:42;14.10;99.90
26051;DHT22;13825;53.496;10.020;2023-06-14T04:29:10;14.10;99.90
26051;DHT22;13825;53.496;10.020;2023-06-14T04:31:53;14.10;99.90
26051;DHT22;13825;53.496;10.020;2023-06-14T04:34:30;14.20;99.90
26051;DHT22;13825;53.496;10.020;2023-06-14T04:36:59;14.30;99.90
26051;DHT22;13825;53.496;10.020;2023-06-14T04:39:26;14.30;99.90
26051;DHT22;13825;53.496;10.020;2023-06-14T04:41:54;14.40;99.90
26051;DHT22;13825;53.496;10.020;2023-06-14T04:44:25;14.60;99.90
26051;DHT22;13825;53.496;10.020;2023-06-14T04:46:57;14.70;99.90
26051;DHT22;13825;53.496;10.020;2023-06-14T04:49:24;14.70;99.90
26051;DHT22;13825;53.496;10.020;2023-06-14T04:51:53;14.80;99.90
26051;DHT22;13825;53.496;10.020;2023-06-14T04:54:25;15.00;99.90
26051;DHT22;13825;53.496;10.020;2023-06-14T04:56:52;15.00;99.90
26051;DHT22;13825;53.496;10.020;2023-06-14T04:59:21;15.10;99.90
26051;DHT22;13825;53.496;10.020;2023-06-14T05:01:49;15.20;99.90
26051;DHT22;13825;53.496;10.020;2023-06-14T05:04:20;15.30;99.90
26051;DHT22;13825;53.496;10.020;2023-06-14T05:06:48;15.40;99.90
26051;DHT22;13825;53.496;10.020;2023-06-14T05:09:16;15.40;99.90
26051;DHT22;13825;53.496;10.020;2023-06-14T05:11:43;15.50;99.90
26051;DHT22;13825;53.496;10.020;2023-06-14T05:14:12;15.50;99.90
26051;DHT22;13825;53.496;10.020;2023-06-14T05:16:39;15.60;99.90
26051;DHT22;13825;53.496;10.020;2023-06-14T05:19:06;15.70;99.90
26051;DHT22;13825;53.496;10.020;2023-06-14T05:21:44;15.70;99.90
26051;DHT22;13825;53.496;10.020;2023-06-14T05:24:20;15.80;99.90
26051;DHT22;13825;53.496;10.020;2023-06-14T05:26:52;16.00;99.90
26051;DHT22;13825;53.496;10.020;2023-06-14T05:32:48;16.20;99.90
26051;DHT22;13825;53.496;10.020;2023-06-14T05:41:01;16.40;99.90
26051;DHT22;13825;53.496;10.020;2023-06-14T05:43:37;16.50;99.90
26051;DHT22;13825;53.496;10.020;2023-06-14T06:19:48;17.50;99.90
26051;DHT22;13825;53.496;10.020;2023-06-14T06:22:19;17.70;99.90
26051;DHT22;13825;53.496;10.020;2023-06-14T06:24:58;17.70;99.90
26051;DHT22;13825;53.496;10.020;2023-06-14T06:27:33;17.80;99.90
26051;DHT22;13825;53.496;10.020;2023-06-14T06:30:07;17.90;99.90
26051;DHT22;13825;53.496;10.020;2023-06-14T06:32:35;17.90;99.90
26051;DHT22;13825;53.496;10.020;2023-06-14T06:37:43;18.00;99.90
26051;DHT22;13825;53.496;10.020;2023-06-14T06:45:27;18.40;99.90
26051;DHT22;13825;53.496;10.020;2023-06-14T06:47:54;18.40;99.90
26051;DHT22;13825;53.496;10.020;2023-06-14T06:52:59;18.50;99.90
26051;DHT22;13825;53.496;10.020;2023-06-14T06:55:26;18.70;99.90
26051;DHT22;13825;53.496;10.020;2023-06-14T06:57:53;18.80;98.00
26051;DHT22;13825;53.496;10.020;2023-06-14T07:00:24;18.90;97.90
26051;DHT22;13825;53.496;10.020;2023-06-14T07:02:53;19.00;93.30
26051;DHT22;13825;53.496;10.020;2023-06-14T07:05:25;19.10;88.10
26051;DHT22;13825;53.496;10.020;2023-06-14T07:07:59;19.10;81.10
26051;DHT22;13825;53.496;10.020;2023-06-14T07:10:27;19.20;77.30
26051;DHT22;13825;53.496;10.020;2023-06-14T07:12:56;19.20;78.60
26051;DHT22;13825;53.496;10.020;2023-06-14T07:15:31;19.30;70.80
26051;DHT22;13825;53.496;10.020;2023-06-14T07:18:04;19.20;71.60
26051;DHT22;13825;53.496;10.020;2023-06-14T07:20:41;19.40;70.40
26051;DHT22;13825;53.496;10.020;2023-06-14T07:23:27;19.60;62.70
26051;DHT22;13825;53.496;10.020;2023-06-14T07:25:58;19.90;67.90
26051;DHT22;13825;53.496;10.020;2023-06-14T07:28:25;20.10;57.80
26051;DHT22;13825;53.496;10.020;2023-06-14T07:30:52;20.10;47.70
26051;DHT22;13825;53.496;10.020;2023-06-14T07:33:19;20.20;44.50
26051;DHT22;13825;53.496;10.020;2023-06-14T07:35:46;20.30;43.50
26051;DHT22;13825;53.496;10.020;2023-06-14T07:38:22;20.40;48.60
26051;DHT22;13825;53.496;10.020;2023-06-14T07:41:00;20.30;44.50
26051;DHT22;13825;53.496;10.020;2023-06-14T07:43:45;20.40;48.80
26051;DHT22;13825;53.496;10.020;2023-06-14T07:46:16;20.60;49.30
26051;DHT22;13825;53.496;10.020;2023-06-14T07:51:26;20.90;41.40
26051;DHT22;13825;53.496;10.020;2023-06-14T07:54:01;20.90;37.60
26051;DHT22;13825;53.496;10.020;2023-06-14T07:56:37;20.60;28.70
26051;DHT22;13825;53.496;10.020;2023-06-14T07:59:26;20.30;27.20
26051;DHT22;13825;53.496;10.020;2023-06-14T08:02:24;20.70;28.50
26051;DHT22;13825;53.496;10.020;2023-06-14T08:05:17;21.00;33.90
26051;DHT22;13825;53.496;10.020;2023-06-14T08:07:49;21.20;22.20
26051;DHT22;13825;53.496;10.020;2023-06-14T08:10:57;21.30;29.00
26051;DHT22;13825;53.496;10.020;2023-06-14T08:13:26;21.50;30.00
26051;DHT22;13825;53.496;10.020;2023-06-14T08:15:53;21.70;27.60
26051;DHT22;13825;53.496;10.020;2023-06-14T08:18:23;21.90;18.20
26051;DHT22;13825;53.496;10.020;2023-06-14T08:20:52;21.90;22.80
26051;DHT22;13825;53.496;10.020;2023-06-14T08:23:20;21.90;12.50
26051;DHT22;13825;53.496;10.020;2023-06-14T08:25:47;22.10;1.00
26051;DHT22;13825;53.496;10.020;2023-06-14T08:28:17;22.10;4.40
26051;DHT22;13825;53.496;10.020;2023-06-14T08:30:49;22.20;6.70
26051;DHT22;13825;53.496;10.020;2023-06-14T08:33:21;22.40;1.00
26051;DHT22;13825;53.496;10.020;2023-06-14T08:38:26;22.70;13.30
26051;DHT22;13825;53.496;10.020;2023-06-14T08:41:25;22.90;13.80
26051;DHT22;13825;53.496;10.020;2023-06-14T08:44:17;23.10;5.30
26051;DHT22;13825;53.496;10.020;2023-06-14T08:46:48;23.20;5.50
26051;DHT22;13825;53.496;10.020;2023-06-14T08:51:43;23.10;1.00
26051;DHT22;13825;53.496;10.020;2023-06-14T08:54:21;22.90;1.00
26051;DHT22;13825;53.496;10.020;2023-06-14T08:57:03;23.00;1.00
26051;DHT22;13825;53.496;10.020;2023-06-14T08:59:36;23.00;1.00
26051;DHT22;13825;53.496;10.020;2023-06-14T09:02:08;23.20;1.00
26051;DHT22;13825;53.496;10.020;2023-06-14T09:04:46;23.40;1.00
26051;DHT22;13825;53.496;10.020;2023-06-14T09:10:18;23.60;1.00
26051;DHT22;13825;53.496;10.020;2023-06-14T09:15:22;23.20;1.00
26051;DHT22;13825;53.496;10.020;2023-06-14T09:17:51;23.40;1.00
26051;DHT22;13825;53.496;10.020;2023-06-14T09:38:40;24.70;1.00
26051;DHT22;13825;53.496;10.020;2023-06-14T09:43:46;24.90;1.00
26051;DHT22;13825;53.496;10.020;2023-06-14T09:46:20;25.20;1.00
26051;DHT22;13825;53.496;10.020;2023-06-14T09:48:47;25.20;1.00
26051;DHT22;13825;53.496;10.020;2023-06-14T09:51:18;25.00;1.00
26051;DHT22;13825;53.496;10.020;2023-06-14T09:57:11;25.00;1.00
26051;DHT22;13825;53.496;10.020;2023-06-14T09:59:46;24.50;1.00
26051;DHT22;13825;53.496;10.020;2023-06-14T10:02:35;24.50;1.00
26051;DHT22;13825;53.496;10.020;2023-06-14T10:05:30;25.00;1.00
26051;DHT22;13825;53.496;10.020;2023-06-14T10:08:32;25.40;1.00
26051;DHT22;13825;53.496;10.020;2023-06-14T10:11:01;24.90;1.00
26051;DHT22;13825;53.496;10.020;2023-06-14T10:13:30;25.30;1.00
26051;DHT22;13825;53.496;10.020;2023-06-14T10:16:04;25.60;1.00
26051;DHT22;13825;53.496;10.020;2023-06-14T10:18:42;26.00;1.00
26051;DHT22;13825;53.496;10.020;2023-06-14T10:21:16;26.20;1.00
26051;DHT22;13825;53.496;10.020;2023-06-14T10:23:46;26.30;1.00
26051;DHT22;13825;53.496;10.020;2023-06-14T10:26:22;26.50;1.00
26051;DHT22;13825;53.496;10.020;2023-06-14T10:28:57;26.90;1.00
26051;DHT22;13825;53.496;10.020;2023-06-14T10:31:40;27.20;1.00
26051;DHT22;13825;53.496;10.020;2023-06-14T10:34:20;27.40;1.00
26051;DHT22;13825;53.496;10.020;2023-06-14T10:37:03;27.50;1.00
26051;DHT22;13825;53.496;10.020;2023-06-14T10:39:32;27.90;1.00
26051;DHT22;13825;53.496;10.020;2023-06-14T10:42:02;27.80;1.00
26051;DHT22;13825;53.496;10.020;2023-06-14T10:44:40;27.60;1.00
26051;DHT22;13825;53.496;10.020;2023-06-14T10:47:08;27.00;1.00
26051;DHT22;13825;53.496;10.020;2023-06-14T10:49:44;26.30;1.00
26051;DHT22;13825;53.496;10.020;2023-06-14T10:52:12;26.10;1.00
26051;DHT22;13825;53.496;10.020;2023-06-14T10:55:11;26.00;1.00
26051;DHT22;13825;53.496;10.020;2023-06-14T10:57:41;26.00;1.00
26051;DHT22;13825;53.496;10.020;2023-06-14T11:00:15;25.60;1.00
26051;DHT22;13825;53.496;10.020;2023-06-14T11:02:53;25.60;1.00
26051;DHT22;13825;53.496;10.020;2023-06-14T11:05:29;25.40;1.00
26051;DHT22;13825;53.496;10.020;2023-06-14T11:08:11;26.20;1.00
26051;DHT22;13825;53.496;10.020;2023-06-14T11:10:43;26.60;1.00
26051;DHT22;13825;53.496;10.020;2023-06-14T11:13:11;27.10;1.00
26051;DHT22;13825;53.496;10.020;2023-06-14T11:15:45;27.40;1.00
26051;DHT22;13825;53.496;10.020;2023-06-14T11:18:22;26.90;1.00
26051;DHT22;13825;53.496;10.020;2023-06-14T11:20:59;26.10;1.00
26051;DHT22;13825;53.496;10.020;2023-06-14T11:23:34;25.20;1.00
26051;DHT22;13825;53.496;10.020;2023-06-14T11:26:01;24.90;1.00
26051;DHT22;13825;53.496;10.020;2023-06-14T11:28:37;24.90;1.00
26051;DHT22;13825;53.496;10.020;2023-06-14T11:31:04;24.90;1.00
26051;DHT22;13825;53.496;10.020;2023-06-14T11:33:31;25.00;1.00
26051;DHT22;13825;53.496;10.020;2023-06-14T11:36:04;26.00;1.00
26051;DHT22;13825;53.496;10.020;2023-06-14T11:38:35;26.90;1.00
26051;DHT22;13825;53.496;10.020;2023-06-14T11:41:03;27.50;1.00
26051;DHT22;13825;53.496;10.020;2023-06-14T11:43:33;27.80;1.00
26051;DHT22;13825;53.496;10.020;2023-06-14T11:46:00;27.60;1.00
26051;DHT22;13825;53.496;10.020;2023-06-14T11:48:36;27.00;1.00
26051;DHT22;13825;53.496;10.020;2023-06-14T11:51:06;26.40;1.00
26051;DHT22;13825;53.496;10.020;2023-06-14T11:53:33;26.10;1.00
26051;DHT22;13825;53.496;10.020;2023-06-14T11:56:01;26.20;1.00
26051;DHT22;13825;53.496;10.020;2023-06-14T11:58:29;27.10;1.00
26051;DHT22;13825;53.496;10.020;2023-06-14T12:00:56;27.80;1.00
26051;DHT22;13825;53.496;10.020;2023-06-14T12:03:23;28.60;1.00
26051;DHT22;13825;53.496;10.020;2023-06-14T12:06:01;28.90;1.00
26051;DHT22;13825;53.496;10.020;2023-06-14T12:08:34;29.50;1.00
26051;DHT22;13825;53.496;10.020;2023-06-14T12:11:06;28.70;1.00
26051;DHT22;13825;53.496;10.020;2023-06-14T12:13:34;27.70;1.00
26051;DHT22;13825;53.496;10.020;2023-06-14T12:16:02;27.40;1.00
26051;DHT22;13825;53.496;10.020;2023-06-14T12:18:36;26.80;1.00
26051;DHT22;13825;53.496;10.020;2023-06-14T12:21:04;26.60;1.00
26051;DHT22;13825;53.496;10.020;2023-06-14T12:23:46;26.60;1.00
26051;DHT22;13825;53.496;10.020;2023-06-14T12:26:14;26.50;1.00
26051;DHT22;13825;53.496;10.020;2023-06-14T12:28:42;26.20;1.00
26051;DHT22;13825;53.496;10.020;2023-06-14T12:31:12;26.00;1.00
26051;DHT22;13825;53.496;10.020;2023-06-14T12:33:40;26.00;1.00
26051;DHT22;13825;53.496;10.020;2023-06-14T12:36:09;25.70;1.00
26051;DHT22;13825;53.496;10.020;2023-06-14T12:38:36;25.80;1.00
26051;DHT22;13825;53.496;10.020;2023-06-14T12:41:05;26.50;1.00
26051;DHT22;13825;53.496;10.020;2023-06-14T12:43:33;27.40;1.00
26051;DHT22;13825;53.496;10.020;2023-06-14T12:46:00;28.30;1.00
26051;DHT22;13825;53.496;10.020;2023-06-14T12:48:27;29.00;1.00
26051;DHT22;13825;53.496;10.020;2023-06-14T12:50:55;29.60;1.00
26051;DHT22;13825;53.496;10.020;2023-06-14T12:53:24;30.20;1.00
26051;DHT22;13825;53.496;10.020;2023-06-14T12:55:51;29.10;1.00
26051;DHT22;13825;53.496;10.020;2023-06-14T12:58:19;28.40;1.00
26051;DHT22;13825;53.496;10.020;2023-06-14T13:00:47;28.00;1.00
26051;DHT22;13825;53.496;10.020;2023-06-14T13:03:16;27.40;1.00
26051;DHT22;13825;53.496;10.020;2023-06-14T13:05:44;26.60;1.00
26051;DHT22;13825;53.496;10.020;2023-06-14T13:08:13;26.10;1.00
26051;DHT22;13825;53.496;10.020;2023-06-14T13:10:40;25.90;1.00
26051;DHT22;13825;53.496;10.020;2023-06-14T13:13:08;26.00;1.00
26051;DHT22;13825;53.496;10.020;2023-06-14T13:15:38;27.10;1.00
26051;DHT22;13825;53.496;10.020;2023-06-14T13:18:05;28.20;1.00
26051;DHT22;13825;53.496;10.020;2023-06-14T13:20:32;29.00;1.00
26051;DHT22;13825;53.496;10.020;2023-06-14T13:22:59;29.20;1.00
26051;DHT22;13825;53.496;10.020;2023-06-14T13:25:29;28.20;1.00
26051;DHT22;13825;53.496;10.020;2023-06-14T13:27:56;27.30;1.00
26051;DHT22;13825;53.496;10.020;2023-06-14T13:30:24;26.60;1.00
26051;DHT22;13825;53.496;10.020;2023-06-14T13:32:52;26.20;1.00
26051;DHT22;13825;53.496;10.020;2023-06-14T13:35:21;25.80;1.00
26051;DHT22;13825;53.496;10.020;2023-06-14T13:37:49;26.00;1.00
26051;DHT22;13825;53.496;10.020;2023-06-14T13:40:18;25.80;1.00
26051;DHT22;13825;53.496;10.020;2023-06-14T13:42:45;26.60;1.00
26051;DHT22;13825;53.496;10.020;2023-06-14T13:45:13;27.80;1.00
26051;DHT22;13825;53.496;10.020;2023-06-14T13:47:40;29.00;1.00
26051;DHT22;13825;53.496;10.020;2023-06-14T13:50:09;30.00;1.00
26051;DHT22;13825;53.496;10.020;2023-06-14T13:52:36;31.00;1.00
26051;DHT22;13825;53.496;10.020;2023-06-14T13:55:04;31.20;1.00
26051;DHT22;13825;53.496;10.020;2023-06-14T13:57:31;32.00;1.00
26051;DHT22;13825;53.496;10.020;2023-06-14T13:59:58;32.30;1.00
26051;DHT22;13825;53.496;10.020;2023-06-14T14:02:27;31.50;1.00
26051;DHT22;13825;53.496;10.020;2023-06-14T14:04:54;30.20;1.00
26051;DHT22;13825;53.496;10.020;2023-06-14T14:07:22;30.30;1.00
26051;DHT22;13825;53.496;10.020;2023-06-14T14:09:49;31.40;1.00
26051;DHT22;13825;53.496;10.020;2023-06-14T14:12:18;32.20;1.00
26051;DHT22;13825;53.496;10.020;2023-06-14T14:14:45;32.50;1.00
26051;DHT22;13825;53.496;10.020;2023-06-14T14:17:13;33.20;1.00
26051;DHT22;13825;53.496;10.020;2023-06-14T14:19:40;33.60;1.00
26051;DHT22;13825;53.496;10.020;2023-06-14T14:22:07;32.50;1.00
26051;DHT22;13825;53.496;10.020;2023-06-14T14:24:36;30.90;1.00
26051;DHT22;13825;53.496;10.020;2023-06-14T14:27:03;31.20;1.00
26051;DHT22;13825;53.496;10.020;2023-06-14T14:29:31;32.20;1.00
26051;DHT22;13825;53.496;10.020;2023-06-14T14:31:58;32.90;1.00
26051;DHT22;13825;53.496;10.020;2023-06-14T14:34:25;33.30;1.00
26051;DHT22;13825;53.496;10.020;2023-06-14T14:36:54;33.10;1.00
26051;DHT22;13825;53.496;10.020;2023-06-14T14:39:21;33.00;1.00
26051;DHT22;13825;53.496;10.020;2023-06-14T14:41:51;33.90;1.00
26051;DHT22;13825;53.496;10.020;2023-06-14T14:44:20;34.40;1.00
26051;DHT22;13825;53.496;10.020;2023-06-14T14:46:48;34.90;1.00
26051;DHT22;13825;53.496;10.020;2023-06-14T14:49:15;34.60;1.00
26051;DHT22;13825;53.496;10.020;2023-06-14T14:51:42;33.10;1.00
26051;DHT22;13825;53.496;10.020;2023-06-14T14:54:10;31.50;1.00
26051;DHT22;13825;53.496;10.020;2023-06-14T14:56:39;30.10;1.00
26051;DHT22;13825;53.496;10.020;2023-06-14T14:59:10;29.70;1.00
26051;DHT22;13825;53.496;10.020;2023-06-14T15:01:38;30.60;1.00
26051;DHT22;13825;53.496;10.020;2023-06-14T15:04:06;31.80;1.00
26051;DHT22;13825;53.496;10.020;2023-06-14T15:06:34;33.00;1.00
26051;DHT22;13825;53.496;10.020;2023-06-14T15:09:01;33.40;1.00
26051;DHT22;13825;53.496;10.020;2023-06-14T15:11:29;33.70;1.00
26051;DHT22;13825;53.496;10.020;2023-06-14T15:13:56;34.70;1.00
26051;DHT22;13825;53.496;10.020;2023-06-14T15:16:28;35.70;1.00
26051;DHT22;13825;53.496;10.020;2023-06-14T15:18:56;35.90;1.00
26051;DHT22;13825;53.496;10.020;2023-06-14T15:21:23;35.40;1.00
26051;DHT22;13825;53.496;10.020;2023-06-14T15:23:50;36.10;1.00
26051;DHT22;13825;53.496;10.020;2023-06-14T15:26:18;36.80;1.00
26051;DHT22;13825;53.496;10.020;2023-06-14T15:28:45;36.50;1.00
26051;DHT22;13825;53.496;10.020;2023-06-14T15:31:14;36.30;1.00
26051;DHT22;13825;53.496;10.020;2023-06-14T15:33:46;36.20;1.00
26051;DHT22;13825;53.496;10.020;2023-06-14T15:36:24;36.00;1.00
26051;DHT22;13825;53.496;10.020;2023-06-14T15:38:58;34.00;1.00
26051;DHT22;13825;53.496;10.020;2023-06-14T15:41:27;32.20;1.00
26051;DHT22;13825;53.496;10.020;2023-06-14T15:43:55;32.00;1.00
26051;DHT22;13825;53.496;10.020;2023-06-14T15:46:22;33.20;1.00
26051;DHT22;13825;53.496;10.020;2023-06-14T15:48:53;33.70;1.00
26051;DHT22;13825;53.496;10.020;2023-06-14T15:51:20;33.50;1.00
26051;DHT22;13825;53.496;10.020;2023-06-14T15:53:49;32.20;1.00
26051;DHT22;13825;53.496;10.020;2023-06-14T15:56:17;32.70;1.00
26051;DHT22;13825;53.496;10.020;2023-06-14T15:58:45;33.40;1.00
26051;DHT22;13825;53.496;10.020;2023-06-14T16:01:12;34.60;1.00
26051;DHT22;13825;53.496;10.020;2023-06-14T16:03:39;35.60;1.00
26051;DHT22;13825;53.496;10.020;2023-06-14T16:06:08;36.00;1.00
26051;DHT22;13825;53.496;10.020;2023-06-14T16:08:35;36.00;1.00
26051;DHT22;13825;53.496;10.020;2023-06-14T16:11:05;35.60;1.00
26051;DHT22;13825;53.496;10.020;2023-06-14T16:13:35;35.90;1.00
26051;DHT22;13825;53.496;10.020;2023-06-14T16:16:02;35.10;1.00
26051;DHT22;13825;53.496;10.020;2023-06-14T16:18:32;35.00;1.00
26051;DHT22;13825;53.496;10.020;2023-06-14T16:21:02;34.90;1.00
26051;DHT22;13825;53.496;10.020;2023-06-14T16:23:38;34.80;1.00
26051;DHT22;13825;53.496;10.020;2023-06-14T16:26:10;34.90;1.00
26051;DHT22;13825;53.496;10.020;2023-06-14T16:28:37;34.70;1.00
26051;DHT22;13825;53.496;10.020;2023-06-14T16:31:07;35.20;1.00
26051;DHT22;13825;53.496;10.020;2023-06-14T16:33:37;35.20;1.00
26051;DHT22;13825;53.496;10.020;2023-06-14T16:36:20;35.10;1.00
26051;DHT22;13825;53.496;10.020;2023-06-14T16:38:52;34.90;1.00
26051;DHT22;13825;53.496;10.020;2023-06-14T16:41:20;34.80;1.00
26051;DHT22;13825;53.496;10.020;2023-06-14T16:43:46;35.10;1.00
26051;DHT22;13825;53.496;10.020;2023-06-14T16:46:14;34.90;1.00
26051;DHT22;13825;53.496;10.020;2023-06-14T16:48:41;35.10;1.00
26051;DHT22;13825;53.496;10.020;2023-06-14T16:51:12;35.20;1.00
26051;DHT22;13825;53.496;10.020;2023-06-14T16:53:41;35.10;1.00
26051;DHT22;13825;53.496;10.020;2023-06-14T16:56:10;34.50;1.00
26051;DHT22;13825;53.496;10.020;2023-06-14T16:59:04;34.50;1.00
26051;DHT22;13825;53.496;10.020;2023-06-14T17:01:51;34.20;1.00
26051;DHT22;13825;53.496;10.020;2023-06-14T17:04:23;34.00;1.00
26051;DHT22;13825;53.496;10.020;2023-06-14T17:06:51;34.00;1.00
26051;DHT22;13825;53.496;10.020;2023-06-14T17:09:20;33.90;1.00
26051;DHT22;13825;53.496;10.020;2023-06-14T17:11:52;34.00;1.00
26051;DHT22;13825;53.496;10.020;2023-06-14T17:14:30;34.00;1.00
26051;DHT22;13825;53.496;10.020;2023-06-14T17:16:57;33.90;1.00
26051;DHT22;13825;53.496;10.020;2023-06-14T17:19:25;33.80;1.00
26051;DHT22;13825;53.496;10.020;2023-06-14T17:21:53;34.00;1.00
26051;DHT22;13825;53.496;10.020;2023-06-14T17:24:22;34.30;1.00
26051;DHT22;13825;53.496;10.020;2023-06-14T17:26:49;34.20;1.00
26051;DHT22;13825;53.496;10.020;2023-06-14T17:29:17;34.10;1.00
26051;DHT22;13825;53.496;10.020;2023-06-14T17:31:46;34.00;1.00